Terminal Aerodrome Forecast
Issued by NWS

Home | Current Version | Previous Version | Text Only | Print | Product List | Glossary On
Versions: 1 2 3 4 5 6 7 8 9 10 11 12
014
FTUS42 TJSJ 301736
TAFJBQ
TAF
TJBQ 301736Z 3018/3118 07012KT P6SM VCSH SCT025 SCT050 BKN250
     FM302330 11005KT P6SM FEW030 SCT250
     FM310400 00000KT P6SM SKC
     FM311400 07014KT P6SM SCT030=

USA.gov is the U.S. government's official web portal to all federal, state and local government web resources and services.